createdAt,value
2022-11-15T00:02:22.559Z,6.68
2022-11-15T00:05:08.502Z,6.85
2022-11-15T00:07:56.042Z,7.20
2022-11-15T00:10:42.928Z,8.13
2022-11-15T00:13:30.037Z,6.55
2022-11-15T00:16:16.503Z,8.20
2022-11-15T00:19:03.031Z,7.65
2022-11-15T00:21:49.166Z,5.57
2022-11-15T00:24:35.187Z,6.20
2022-11-15T00:27:21.190Z,5.38
2022-11-15T00:30:07.565Z,6.63
2022-11-15T00:32:53.788Z,6.95
2022-11-15T00:35:39.723Z,7.10
2022-11-15T00:38:25.751Z,6.65
2022-11-15T00:41:11.887Z,6.57
2022-11-15T00:43:58.039Z,7.25
2022-11-15T00:46:43.751Z,7.88
2022-11-15T00:50:01.891Z,7.10
2022-11-15T00:52:47.619Z,5.68
2022-11-15T00:55:33.563Z,6.97
2022-11-15T00:58:19.949Z,5.28
2022-11-15T01:01:08.108Z,6.70
2022-11-15T01:03:58.614Z,6.55
2022-11-15T01:06:47.020Z,5.40
2022-11-15T01:09:32.808Z,5.53
2022-11-15T01:12:18.928Z,6.90
2022-11-15T01:15:05.883Z,5.68
2022-11-15T01:17:51.884Z,6.32
2022-11-15T01:20:44.224Z,6.47
2022-11-15T01:23:30.330Z,5.35
2022-11-15T01:26:17.088Z,6.28
2022-11-15T01:29:02.733Z,6.22
2022-11-15T01:31:48.643Z,6.63
2022-11-15T01:34:34.680Z,6.25
2022-11-15T01:37:20.684Z,6.05
2022-11-15T01:40:07.072Z,7.32
2022-11-15T01:42:53.177Z,5.45
2022-11-15T01:45:38.936Z,6.68
2022-11-15T01:48:34.252Z,7.13
2022-11-15T01:51:22.828Z,5.40
2022-11-15T01:54:14.517Z,7.00
2022-11-15T01:57:07.460Z,5.13
2022-11-15T01:59:53.537Z,7.07
2022-11-15T02:02:40.162Z,5.53
2022-11-15T02:05:25.945Z,7.18
2022-11-15T02:08:20.689Z,5.40
2022-11-15T02:11:10.181Z,6.22
2022-11-15T02:13:58.101Z,5.40
2022-11-15T02:17:09.810Z,3.72
2022-11-15T02:20:18.154Z,5.18
2022-11-15T02:26:09.027Z,4.20
2022-11-15T02:29:06.014Z,4.65
2022-11-15T02:32:12.690Z,5.03
2022-11-15T02:35:06.637Z,4.40
2022-11-15T02:38:03.771Z,4.38
2022-11-15T02:41:14.030Z,3.92
2022-11-15T02:44:22.250Z,4.22
2022-11-15T02:47:34.526Z,5.47
2022-11-15T02:50:24.425Z,5.13
2022-11-15T02:53:10.814Z,5.47
2022-11-15T02:55:57.532Z,5.35
2022-11-15T02:59:16.344Z,5.43
2022-11-15T03:02:29.694Z,3.58
2022-11-15T03:05:35.494Z,5.95
2022-11-15T03:08:46.274Z,4.20
2022-11-15T03:11:37.294Z,5.20
2022-11-15T03:14:31.748Z,4.47
2022-11-15T03:17:24.831Z,4.90
2022-11-15T03:20:14.646Z,4.07
2022-11-15T03:23:10.699Z,3.75
2022-11-15T03:25:59.003Z,4.13
2022-11-15T03:29:04.078Z,5.03
2022-11-15T03:31:58.858Z,3.63
2022-11-15T03:34:53.127Z,4.13
2022-11-15T03:38:14.632Z,3.83
2022-11-15T03:41:02.513Z,3.90
2022-11-15T03:44:10.891Z,4.40
2022-11-15T03:47:38.020Z,5.05
2022-11-15T03:50:25.398Z,4.60
2022-11-15T03:53:11.618Z,4.20
2022-11-15T03:55:57.760Z,4.15
2022-11-15T03:58:43.641Z,4.80
2022-11-15T04:01:29.419Z,4.30
2022-11-15T04:04:15.425Z,3.42
2022-11-15T04:07:01.399Z,3.97
2022-11-15T04:10:06.415Z,4.15
2022-11-15T04:12:52.266Z,3.88
2022-11-15T04:15:38.181Z,5.03
2022-11-15T04:18:30.581Z,5.28
2022-11-15T04:21:35.172Z,4.80
2022-11-15T04:24:21.130Z,4.75
2022-11-15T04:27:07.128Z,4.75
2022-11-15T04:29:52.936Z,4.40
2022-11-15T04:32:38.880Z,5.32
2022-11-15T04:35:25.073Z,4.65
2022-11-15T04:38:11.959Z,4.93
2022-11-15T04:40:58.016Z,5.20
2022-11-15T04:43:44.065Z,5.25
2022-11-15T04:46:30.240Z,4.43
2022-11-15T04:49:15.964Z,4.05
2022-11-15T04:52:02.148Z,4.85
2022-11-15T04:54:48.255Z,5.63
2022-11-15T04:57:33.824Z,3.88
2022-11-15T05:00:20.269Z,4.40
2022-11-15T05:03:24.724Z,3.72
2022-11-15T05:06:10.725Z,4.63
2022-11-15T05:08:57.048Z,4.22
2022-11-15T05:11:43.213Z,3.85
2022-11-15T05:14:30.168Z,4.63
2022-11-15T05:17:19.729Z,3.20
2022-11-15T05:20:06.401Z,3.90
2022-11-15T05:22:53.268Z,4.07
2022-11-15T05:25:39.828Z,4.35
2022-11-15T05:28:26.010Z,3.70
2022-11-15T05:31:14.876Z,4.68
2022-11-15T05:34:02.802Z,3.55
2022-11-15T05:36:49.245Z,4.43
2022-11-15T05:39:35.022Z,4.20
2022-11-15T05:42:21.305Z,3.88
2022-11-15T05:45:09.492Z,3.72
2022-11-15T05:47:58.683Z,4.68
2022-11-15T05:50:47.321Z,3.42
2022-11-15T05:53:34.197Z,3.78
2022-11-15T05:56:20.676Z,4.20
2022-11-15T05:59:08.210Z,4.03
2022-11-15T06:01:54.193Z,5.13
2022-11-15T06:04:40.193Z,3.58
2022-11-15T06:07:26.944Z,4.93
2022-11-15T06:10:16.163Z,3.65
2022-11-15T06:13:09.827Z,3.72
2022-11-15T06:15:59.802Z,4.78
2022-11-15T06:19:21.391Z,3.97
2022-11-15T06:22:07.487Z,7.18
2022-11-15T06:24:53.570Z,3.40
2022-11-15T06:27:39.599Z,3.92
2022-11-15T06:30:26.960Z,5.82
2022-11-15T06:33:13.220Z,5.68
2022-11-15T06:36:04.234Z,3.83
2022-11-15T06:39:13.608Z,6.05
2022-11-15T06:42:04.394Z,4.82
2022-11-15T06:44:50.612Z,6.05
2022-11-15T06:47:48.965Z,4.65
2022-11-15T06:50:35.164Z,4.13
2022-11-15T06:53:21.926Z,4.53
2022-11-15T06:56:08.464Z,3.15
2022-11-15T06:58:55.357Z,8.32
2022-11-15T07:01:41.954Z,4.85
2022-11-15T07:04:28.180Z,4.50
2022-11-15T07:07:14.347Z,5.20
2022-11-15T07:10:00.493Z,3.45
2022-11-15T07:12:50.444Z,3.92
2022-11-15T07:16:50.313Z,4.47
2022-11-15T07:19:37.069Z,3.88
2022-11-15T07:22:32.423Z,3.85
2022-11-15T07:25:18.810Z,4.25
2022-11-15T07:28:05.143Z,3.83
2022-11-15T07:30:53.005Z,5.65
2022-11-15T07:33:39.572Z,3.75
2022-11-15T07:49:00.798Z,3.65
2022-11-15T09:15:16.700Z,3.00
2022-11-15T09:18:23.461Z,3.67
2022-11-15T09:22:12.795Z,4.00
2022-11-15T09:32:39.421Z,17.85
2022-11-15T09:35:30.949Z,7.18
2022-11-15T09:38:38.688Z,2.88
2022-11-15T09:45:31.535Z,3.28
2022-11-15T09:46:06.386Z,3.70
2022-11-15T09:49:42.985Z,3.55
2022-11-15T09:52:22.446Z,4.15
2022-11-15T09:54:59.274Z,4.93
2022-11-15T09:58:11.062Z,3.85
2022-11-15T10:00:48.060Z,3.42
2022-11-15T10:03:18.775Z,3.28
2022-11-15T10:05:54.753Z,3.65
2022-11-15T10:08:52.905Z,3.70
2022-11-15T10:11:38.638Z,3.30
2022-11-15T10:14:15.377Z,3.78
2022-11-15T10:16:55.525Z,4.03
2022-11-15T10:20:19.125Z,4.22
2022-11-15T10:23:18.357Z,4.35
2022-11-15T10:25:48.513Z,3.22
2022-11-15T10:28:23.772Z,3.08
2022-11-15T10:30:54.961Z,3.05
2022-11-15T10:33:37.867Z,3.42
2022-11-15T10:36:30.526Z,4.00
2022-11-15T10:39:24.293Z,3.45
2022-11-15T10:41:52.455Z,4.25
2022-11-15T10:44:37.730Z,3.83
2022-11-15T10:47:39.269Z,3.92
2022-11-15T10:50:34.171Z,3.55
2022-11-15T10:53:03.724Z,3.88
2022-11-15T10:55:33.803Z,3.25
2022-11-15T10:58:47.010Z,3.85
2022-11-15T11:01:34.104Z,2.75
2022-11-15T11:04:13.871Z,2.53
2022-11-15T11:06:52.022Z,2.17
2022-11-15T11:09:36.945Z,1.90
2022-11-15T11:12:06.789Z,2.67
2022-11-15T11:14:37.026Z,10.55
2022-11-15T11:17:41.255Z,3.40
2022-11-15T11:20:35.976Z,2.45
2022-11-15T11:23:38.168Z,4.28
2022-11-15T11:26:27.856Z,3.03
2022-11-15T11:29:22.131Z,2.75
2022-11-15T11:31:52.890Z,2.80
2022-11-15T11:34:38.959Z,3.43
2022-11-15T11:37:33.150Z,2.42
2022-11-15T11:40:00.391Z,3.45
2022-11-15T11:42:33.531Z,2.85
2022-11-15T11:45:13.306Z,2.53
2022-11-15T11:47:47.640Z,3.00
2022-11-15T11:50:33.603Z,3.10
2022-11-15T11:53:33.984Z,6.00
2022-11-15T11:56:16.423Z,2.60
2022-11-15T11:58:46.851Z,3.50
2022-11-15T12:01:23.043Z,2.58
2022-11-15T12:04:17.219Z,3.05
2022-11-15T12:06:59.272Z,2.90
2022-11-15T12:09:58.980Z,2.78
2022-11-15T12:12:43.192Z,3.83
2022-11-15T12:15:10.743Z,2.58
2022-11-15T12:17:40.958Z,3.05
2022-11-15T12:20:25.092Z,2.10
2022-11-15T12:23:01.135Z,2.35
2022-11-15T12:25:33.888Z,3.03
2022-11-15T12:28:23.344Z,2.97
2022-11-15T12:31:00.478Z,2.92
2022-11-15T12:33:35.132Z,3.28
2022-11-15T12:36:11.400Z,2.55
2022-11-15T12:38:55.785Z,2.28
2022-11-15T12:41:31.757Z,3.20
2022-11-15T12:44:00.201Z,2.90
2022-11-15T12:46:30.591Z,3.85
2022-11-15T12:49:24.578Z,2.63
2022-11-15T12:51:53.140Z,3.17
2022-11-15T12:54:23.661Z,2.90
2022-11-15T12:57:08.756Z,3.07
2022-11-15T13:00:07.662Z,2.58
2022-11-15T13:02:49.433Z,2.95
2022-11-15T13:05:16.886Z,2.58
2022-11-15T13:07:45.377Z,3.33
2022-11-15T13:10:30.798Z,2.88
2022-11-15T13:13:44.568Z,3.30
2022-11-15T13:16:18.684Z,3.65
2022-11-15T13:18:56.003Z,2.80
2022-11-15T13:21:44.297Z,3.10
2022-11-15T13:24:15.498Z,4.18
2022-11-15T13:26:46.334Z,2.90
2022-11-15T13:29:19.644Z,2.88
2022-11-15T13:31:47.866Z,5.38
2022-11-15T13:34:50.113Z,5.30
2022-11-15T13:37:33.402Z,3.00
2022-11-15T13:40:28.482Z,3.00
2022-11-15T13:42:56.558Z,3.30
2022-11-15T13:45:24.470Z,5.05
2022-11-15T13:47:57.194Z,13.35
2022-11-15T13:50:36.534Z,3.63
2022-11-15T13:53:05.850Z,4.95
2022-11-15T13:55:34.021Z,4.15
2022-11-15T13:58:07.472Z,3.38
2022-11-15T14:00:41.566Z,6.93
2022-11-15T14:03:30.488Z,4.85
2022-11-15T14:06:14.062Z,4.05
2022-11-15T14:08:43.166Z,4.65
2022-11-15T14:11:21.288Z,12.07
2022-11-15T14:14:24.898Z,4.50
2022-11-15T14:16:56.443Z,4.72
2022-11-15T14:19:27.280Z,4.20
2022-11-15T14:22:16.710Z,4.35
2022-11-15T14:25:07.058Z,4.90
2022-11-15T14:27:34.809Z,4.65
2022-11-15T14:30:02.301Z,5.00
2022-11-15T14:32:42.160Z,4.68
2022-11-15T14:35:19.680Z,5.40
2022-11-15T14:37:47.496Z,4.32
2022-11-15T14:40:18.139Z,4.70
2022-11-15T14:42:47.591Z,3.65
2022-11-15T14:45:21.053Z,4.65
2022-11-15T14:47:48.716Z,4.00
2022-11-15T14:50:19.596Z,4.78
2022-11-15T14:52:47.928Z,4.53
2022-11-15T14:55:51.715Z,4.55
2022-11-15T14:58:19.522Z,5.85
2022-11-15T15:00:47.225Z,5.07
2022-11-15T15:03:14.674Z,4.65
2022-11-15T15:05:44.109Z,5.95
2022-11-15T15:08:12.046Z,4.28
2022-11-15T15:10:42.557Z,4.60
2022-11-15T15:13:16.073Z,4.43
2022-11-15T15:15:44.054Z,4.75
2022-11-15T15:18:20.783Z,4.40
2022-11-15T15:20:58.289Z,3.88
2022-11-15T15:23:27.857Z,3.63
2022-11-15T15:25:55.468Z,3.92
2022-11-15T15:28:22.994Z,4.18
2022-11-15T15:30:50.688Z,3.38
2022-11-15T15:33:18.078Z,3.80
2022-11-15T15:35:45.697Z,5.00
2022-11-15T15:38:13.477Z,4.75
2022-11-15T15:40:40.877Z,6.32
2022-11-15T15:43:10.074Z,5.28
2022-11-15T15:45:41.982Z,4.32
2022-11-15T15:48:18.060Z,6.07
2022-11-15T15:50:45.988Z,4.90
2022-11-15T15:53:14.306Z,4.10
2022-11-15T15:55:41.821Z,4.18
2022-11-15T15:58:09.542Z,4.07
2022-11-15T16:00:37.774Z,4.68
2022-11-15T16:03:05.294Z,5.15
2022-11-15T16:05:32.733Z,5.63
2022-11-15T16:08:00.386Z,5.88
2022-11-15T16:10:30.615Z,4.40
2022-11-15T16:12:58.962Z,3.47
2022-11-15T16:15:29.958Z,5.43
2022-11-15T16:18:05.734Z,4.95
2022-11-15T16:20:43.496Z,6.13
2022-11-15T16:23:22.619Z,4.43
2022-11-15T16:26:07.286Z,4.13
2022-11-15T16:28:35.020Z,5.18
2022-11-15T16:31:12.866Z,4.13
2022-11-15T16:33:41.025Z,7.63
2022-11-15T16:36:23.320Z,4.50
2022-11-15T16:38:53.872Z,6.45
2022-11-15T16:41:21.251Z,5.13
2022-11-15T16:43:52.516Z,6.18
2022-11-15T16:46:21.840Z,6.20
2022-11-15T16:48:55.740Z,8.63
2022-11-15T16:51:23.851Z,6.18
2022-11-15T16:53:51.507Z,5.13
2022-11-15T16:56:29.931Z,4.63
2022-11-15T17:03:07.234Z,5.60
2022-11-15T17:05:34.988Z,5.60
2022-11-15T17:08:02.396Z,7.90
2022-11-15T17:10:29.776Z,5.40
2022-11-15T17:12:57.117Z,6.00
2022-11-15T17:15:24.716Z,4.85
2022-11-15T17:18:35.770Z,4.55
2022-11-15T17:21:14.434Z,4.73
2022-11-15T17:23:42.925Z,4.75
2022-11-15T17:26:28.791Z,6.35
2022-11-15T17:29:14.377Z,4.82
2022-11-15T17:31:41.757Z,6.18
2022-11-15T17:34:09.175Z,5.20
2022-11-15T17:36:36.611Z,7.97
2022-11-15T17:39:04.894Z,10.95
2022-11-15T17:41:34.624Z,21.08
2022-11-15T17:44:03.560Z,10.10
2022-11-15T17:46:32.115Z,8.63
2022-11-15T17:49:10.629Z,5.72
2022-11-15T17:51:38.045Z,4.97
2022-11-15T17:54:05.426Z,5.15
2022-11-15T17:56:32.861Z,6.22
2022-11-15T17:59:01.098Z,5.47
2022-11-15T18:01:30.881Z,5.40
2022-11-15T18:04:00.677Z,3.83
2022-11-15T18:06:32.920Z,4.47
2022-11-15T18:09:01.177Z,4.70
2022-11-15T18:11:31.217Z,5.53
2022-11-15T18:14:04.053Z,5.05
2022-11-15T18:16:33.441Z,4.32
2022-11-15T18:19:12.961Z,5.82
2022-11-15T18:22:04.349Z,4.78
2022-11-15T18:24:38.427Z,5.85
2022-11-15T18:27:07.114Z,4.60
2022-11-15T18:29:37.564Z,4.78
2022-11-15T18:32:11.468Z,6.85
2022-11-15T18:34:39.063Z,5.10
2022-11-15T18:37:07.200Z,6.03
2022-11-15T18:39:34.755Z,4.78
2022-11-15T18:42:02.381Z,6.45
2022-11-15T18:44:30.680Z,6.00
2022-11-15T18:46:58.668Z,6.03
2022-11-15T18:49:26.220Z,4.90
2022-11-15T18:51:53.794Z,5.57
2022-11-15T18:54:21.610Z,4.90
2022-11-15T18:56:50.260Z,6.43
2022-11-15T18:59:17.647Z,5.03
2022-11-15T19:01:49.971Z,4.82
2022-11-15T19:04:19.339Z,5.00
2022-11-15T19:06:49.079Z,5.05
2022-11-15T19:09:18.584Z,4.85
2022-11-15T19:11:47.955Z,5.68
2022-11-15T19:14:17.770Z,6.00
2022-11-15T19:16:51.991Z,5.65
2022-11-15T19:19:25.352Z,5.82
2022-11-15T19:21:52.979Z,7.93
2022-11-15T19:24:21.196Z,9.23
2022-11-15T19:26:48.683Z,6.57
2022-11-15T19:29:17.163Z,6.30
2022-11-15T19:31:45.189Z,7.07
2022-11-15T19:34:12.868Z,7.45
2022-11-15T19:36:42.367Z,8.05
2022-11-15T19:39:14.927Z,6.05
2022-11-15T19:41:43.801Z,7.25
2022-11-15T19:44:12.702Z,6.05
2022-11-15T19:46:40.564Z,5.63
2022-11-15T19:50:51.108Z,6.88
2022-11-15T19:53:18.728Z,6.32
2022-11-15T19:56:02.485Z,5.90
2022-11-15T19:58:30.630Z,8.07
2022-11-15T20:01:03.447Z,7.10
2022-11-15T20:03:32.668Z,7.60
2022-11-15T20:06:06.204Z,7.97
2022-11-15T20:08:34.798Z,6.53
2022-11-15T20:11:03.524Z,6.50
2022-11-15T20:13:31.650Z,6.70
2022-11-15T20:15:59.732Z,6.65
2022-11-15T20:19:08.624Z,7.90
2022-11-15T20:21:36.129Z,6.53
2022-11-15T20:24:04.229Z,6.40
2022-11-15T20:26:32.180Z,7.20
2022-11-15T20:29:02.023Z,7.75
2022-11-15T20:31:30.478Z,7.03
2022-11-15T20:33:58.165Z,6.32
2022-11-15T20:36:25.588Z,6.60
2022-11-15T20:38:59.451Z,7.30
2022-11-15T20:41:27.504Z,6.43
2022-11-15T20:43:55.165Z,8.43
2022-11-15T20:46:22.581Z,6.80
2022-11-15T20:48:50.033Z,8.13
2022-11-15T20:51:18.602Z,8.38
2022-11-15T20:53:47.169Z,7.15
2022-11-15T20:56:20.780Z,7.63
2022-11-15T20:58:50.303Z,9.35
2022-11-15T21:01:23.230Z,10.80
2022-11-15T21:03:52.689Z,6.78
2022-11-15T21:06:21.209Z,8.23
2022-11-15T21:09:08.649Z,7.93
2022-11-15T21:11:55.035Z,7.45
2022-11-15T21:14:22.714Z,9.77
2022-11-15T21:16:50.097Z,8.45
2022-11-15T21:19:29.041Z,8.57
2022-11-15T21:22:00.686Z,10.52
2022-11-15T21:24:28.642Z,10.13
2022-11-15T21:26:56.621Z,13.43
2022-11-15T21:29:24.528Z,10.40
2022-11-15T21:31:53.177Z,18.02
2022-11-15T21:34:20.890Z,18.63
2022-11-15T21:36:48.238Z,15.15
2022-11-15T21:39:15.606Z,10.63
2022-11-15T21:41:43.050Z,10.20
2022-11-15T21:44:10.422Z,8.93
2022-11-15T21:46:37.779Z,7.75
2022-11-15T21:49:05.659Z,8.68
2022-11-15T21:51:33.682Z,10.05
2022-11-15T21:54:01.507Z,13.13
2022-11-15T21:56:29.894Z,13.27
2022-11-15T21:58:57.203Z,13.65
2022-11-15T22:01:44.666Z,12.10
2022-11-15T22:04:12.219Z,13.50
2022-11-15T22:06:39.664Z,17.95
2022-11-15T22:09:07.223Z,15.48
2022-11-15T22:11:34.688Z,14.45
2022-11-15T22:14:02.283Z,15.45
2022-11-15T22:16:29.832Z,14.75
2022-11-15T22:18:57.591Z,15.07
2022-11-15T22:21:25.178Z,26.63
2022-11-15T22:23:52.713Z,13.05
2022-11-15T22:26:23.695Z,16.35
2022-11-15T22:31:19.456Z,16.50
2022-11-15T22:33:47.108Z,16.77
2022-11-15T22:36:14.716Z,13.52
2022-11-15T22:38:42.240Z,14.27
2022-11-15T22:41:09.837Z,14.70
2022-11-15T22:43:37.381Z,15.18
2022-11-15T22:46:05.165Z,15.93
2022-11-15T22:48:37.992Z,10.98
2022-11-15T22:51:06.624Z,13.48
2022-11-15T22:53:34.067Z,14.52
2022-11-15T22:56:03.533Z,13.50
2022-11-15T22:58:32.644Z,14.43
2022-11-15T23:01:02.918Z,13.50
2022-11-15T23:03:31.534Z,16.92
2022-11-15T23:06:15.293Z,15.43
2022-11-15T23:08:42.895Z,14.70
2022-11-15T23:11:30.421Z,14.43
2022-11-15T23:13:58.371Z,15.00
2022-11-15T23:16:33.105Z,12.82
2022-11-15T23:19:09.308Z,11.90
2022-11-15T23:21:57.701Z,15.68
2022-11-15T23:24:25.941Z,12.13
2022-11-15T23:26:56.766Z,12.82
2022-11-15T23:29:25.697Z,15.07
2022-11-15T23:32:12.693Z,11.32
2022-11-15T23:34:44.862Z,11.55
2022-11-15T23:37:15.154Z,13.52
2022-11-15T23:39:42.688Z,13.27
2022-11-15T23:42:19.450Z,14.07
2022-11-15T23:44:50.382Z,14.52
2022-11-15T23:47:21.183Z,13.27
2022-11-15T23:49:48.634Z,12.63
2022-11-15T23:52:16.842Z,12.25
2022-11-15T23:54:44.388Z,10.57
2022-11-15T23:57:12.394Z,11.57
2022-11-15T23:59:43.318Z,12.25
